createdAt,value
2019-03-12T00:00:10.236Z,83.90
2019-03-12T00:01:10.214Z,84.31
2019-03-12T00:02:10.210Z,83.80
2019-03-12T00:03:10.296Z,83.80
2019-03-12T00:04:10.189Z,84.21
2019-03-12T00:05:10.174Z,83.45
2019-03-12T00:06:10.163Z,83.90
2019-03-12T00:07:10.152Z,84.00
2019-03-12T00:08:10.156Z,83.80
2019-03-12T00:09:10.142Z,83.86
2019-03-12T00:10:10.127Z,83.59
2019-03-12T00:11:10.115Z,84.00
2019-03-12T00:12:10.097Z,83.34
2019-03-12T00:13:10.138Z,83.24
2019-03-12T00:14:10.073Z,83.07
2019-03-12T00:15:10.065Z,83.34
2019-03-12T00:16:10.074Z,83.59
2019-03-12T00:17:10.042Z,83.59
2019-03-12T00:18:10.048Z,83.59
2019-03-12T00:19:10.069Z,84.11
2019-03-12T00:20:10.100Z,83.59
2019-03-12T00:21:10.098Z,83.48
2019-03-12T00:22:09.990Z,83.55
2019-03-12T00:23:09.993Z,83.69
2019-03-12T00:24:09.963Z,83.69
2019-03-12T00:25:09.971Z,83.28
2019-03-12T00:26:09.967Z,83.07
2019-03-12T00:27:09.934Z,83.28
2019-03-12T00:28:09.949Z,83.17
2019-03-12T00:29:09.923Z,82.97
2019-03-12T00:30:09.909Z,82.65
2019-03-12T00:31:09.894Z,82.45
2019-03-12T00:32:09.872Z,82.34
2019-03-12T00:33:09.883Z,82.65
2019-03-12T00:34:09.869Z,82.14
2019-03-12T00:35:09.853Z,82.55
2019-03-12T00:36:09.873Z,82.24
2019-03-12T00:37:09.817Z,82.24
2019-03-12T00:38:09.829Z,82.24
2019-03-12T00:39:09.837Z,82.45
2019-03-12T00:40:09.783Z,82.76
2019-03-12T00:41:09.773Z,82.55
2019-03-12T00:42:09.788Z,81.62
2019-03-12T00:43:09.781Z,81.87
2019-03-12T00:44:09.748Z,82.24
2019-03-12T00:45:09.735Z,81.72
2019-03-12T00:46:09.725Z,81.62
2019-03-12T00:47:09.717Z,81.72
2019-03-12T00:48:09.731Z,81.76
2019-03-12T00:49:09.700Z,81.87
2019-03-12T00:50:09.681Z,81.97
2019-03-12T00:51:09.675Z,81.76
2019-03-12T00:52:09.651Z,81.45
2019-03-12T00:53:09.677Z,81.14
2019-03-12T00:54:09.634Z,81.24
2019-03-12T00:55:09.619Z,81.66
2019-03-12T00:56:09.610Z,81.87
2019-03-12T00:57:09.599Z,81.76
2019-03-12T00:58:09.613Z,82.18
2019-03-12T00:59:09.577Z,82.18
2019-03-12T01:00:09.569Z,82.28
2019-03-12T01:01:09.571Z,82.59
2019-03-12T01:02:09.543Z,82.49
2019-03-12T01:03:09.540Z,82.49
2019-03-12T01:04:09.559Z,82.70
2019-03-12T01:05:09.522Z,82.70
2019-03-12T01:06:09.494Z,82.59
2019-03-12T01:07:09.493Z,82.70
2019-03-12T01:08:09.498Z,82.39
2019-03-12T01:09:09.492Z,82.28
2019-03-12T01:10:09.464Z,82.28
2019-03-12T01:11:09.440Z,82.70
2019-03-12T01:12:09.435Z,82.28
2019-03-12T01:13:09.429Z,82.28
2019-03-12T01:14:09.437Z,81.66
2019-03-12T01:15:09.401Z,82.39
2019-03-12T01:16:09.387Z,82.28
2019-03-12T01:17:09.381Z,82.70
2019-03-12T01:18:09.365Z,82.39
2019-03-12T01:19:09.373Z,82.18
2019-03-12T01:20:09.357Z,82.49
2019-03-12T01:21:09.333Z,82.28
2019-03-12T01:22:09.326Z,82.39
2019-03-12T01:23:09.336Z,83.01
2019-03-12T01:24:09.318Z,83.42
2019-03-12T01:25:09.287Z,83.53
2019-03-12T01:26:09.278Z,83.53
2019-03-12T01:27:09.270Z,83.42
2019-03-12T01:28:09.259Z,83.32
2019-03-12T01:29:09.260Z,83.53
2019-03-12T01:30:09.238Z,83.53
2019-03-12T01:31:09.218Z,83.63
2019-03-12T01:32:09.211Z,83.63
2019-03-12T01:33:09.208Z,84.15
2019-03-12T01:34:09.213Z,83.94
2019-03-12T01:35:09.184Z,84.05
2019-03-12T01:36:09.182Z,84.05
2019-03-12T01:37:09.159Z,84.05
2019-03-12T01:38:09.150Z,84.77
2019-03-12T01:39:09.154Z,84.36
2019-03-12T01:40:09.132Z,84.25
2019-03-12T01:41:09.110Z,84.15
2019-03-12T01:42:09.134Z,84.36
2019-03-12T01:43:09.098Z,84.88
2019-03-12T01:44:09.100Z,84.98
2019-03-12T01:45:09.071Z,84.77
2019-03-12T01:46:09.068Z,84.98
2019-03-12T01:47:09.045Z,84.88
2019-03-12T01:48:09.047Z,85.29
2019-03-12T01:49:09.042Z,85.08
2019-03-12T01:50:09.013Z,85.29
2019-03-12T01:51:08.996Z,85.29
2019-03-12T01:52:08.996Z,84.77
2019-03-12T01:53:08.976Z,84.67
2019-03-12T01:54:09.003Z,84.73
2019-03-12T01:55:08.988Z,84.25
2019-03-12T01:56:08.950Z,84.52
2019-03-12T01:57:08.934Z,84.00
2019-03-12T01:58:08.932Z,84.63
2019-03-12T01:59:08.912Z,84.83
2019-03-12T02:00:08.919Z,84.98
2019-03-12T02:01:08.907Z,84.98
2019-03-12T02:02:08.882Z,84.31
2019-03-12T02:03:08.864Z,83.69
2019-03-12T02:04:08.868Z,83.17
2019-03-12T02:05:08.874Z,83.53
2019-03-12T02:06:08.838Z,83.22
2019-03-12T02:07:08.828Z,83.11
2019-03-12T02:08:08.812Z,84.05
2019-03-12T02:09:08.803Z,83.53
2019-03-12T02:10:08.814Z,83.94
2019-03-12T02:11:08.820Z,83.94
2019-03-12T02:12:08.768Z,84.00
2019-03-12T02:13:08.755Z,83.69
2019-03-12T02:14:08.756Z,83.17
2019-03-12T02:15:08.761Z,83.17
2019-03-12T02:16:08.726Z,82.86
2019-03-12T02:17:08.722Z,82.45
2019-03-12T02:18:08.704Z,82.97
2019-03-12T02:19:08.717Z,83.17
2019-03-12T02:20:08.710Z,82.97
2019-03-12T02:21:08.668Z,82.86
2019-03-12T02:22:08.662Z,83.17
2019-03-12T02:23:08.679Z,83.28
2019-03-12T02:24:08.636Z,82.97
2019-03-12T02:25:08.640Z,82.45
2019-03-12T02:26:08.621Z,82.24
2019-03-12T02:27:08.617Z,82.34
2019-03-12T02:28:08.603Z,82.65
2019-03-12T02:29:08.585Z,82.65
2019-03-12T02:30:08.599Z,82.24
2019-03-12T02:31:08.559Z,82.45
2019-03-12T02:32:08.573Z,82.45
2019-03-12T02:33:08.540Z,82.45
2019-03-12T02:34:08.533Z,82.34
2019-03-12T02:35:08.565Z,82.24
2019-03-12T02:36:08.521Z,82.34
2019-03-12T02:37:08.488Z,82.86
2019-03-12T02:38:08.484Z,83.07
2019-03-12T02:39:08.490Z,82.76
2019-03-12T02:40:08.608Z,83.07
2019-03-12T02:41:08.450Z,83.28
2019-03-12T02:42:12.397Z,83.03
2019-03-12T02:43:08.435Z,82.82
2019-03-12T02:44:08.421Z,82.31
2019-03-12T02:45:08.425Z,82.51
2019-03-12T02:46:08.409Z,82.31
2019-03-12T02:47:08.397Z,82.41
2019-03-12T02:48:08.376Z,82.41
2019-03-12T02:49:09.735Z,82.31
2019-03-12T02:50:08.368Z,82.20
2019-03-12T02:51:08.343Z,82.31
2019-03-12T02:52:08.333Z,82.58
2019-03-12T02:53:08.315Z,82.27
2019-03-12T02:54:08.314Z,82.10
2019-03-12T02:55:08.325Z,81.75
2019-03-12T02:56:08.311Z,81.96
2019-03-12T02:57:08.277Z,81.54
2019-03-12T02:58:08.264Z,81.75
2019-03-12T02:59:08.250Z,82.06
2019-03-12T03:00:08.275Z,81.75
2019-03-12T03:01:08.230Z,82.27
2019-03-12T03:02:08.222Z,81.85
2019-03-12T03:03:08.209Z,82.58
2019-03-12T03:04:08.199Z,82.68
2019-03-12T03:05:08.212Z,82.58
2019-03-12T03:06:08.173Z,82.58
2019-03-12T03:07:08.179Z,82.27
2019-03-12T03:08:08.160Z,82.06
2019-03-12T03:09:08.143Z,81.96
2019-03-12T03:10:08.133Z,81.75
2019-03-12T03:11:08.133Z,81.54
2019-03-12T03:12:08.109Z,81.44
2019-03-12T03:13:08.097Z,81.54
2019-03-12T03:14:08.102Z,81.65
2019-03-12T03:15:08.074Z,81.54
2019-03-12T03:16:08.094Z,81.54
2019-03-12T03:17:08.053Z,81.54
2019-03-12T03:18:08.039Z,81.75
2019-03-12T03:19:08.034Z,81.96
2019-03-12T03:20:08.045Z,81.54
2019-03-12T03:21:08.025Z,81.65
2019-03-12T03:22:07.996Z,81.85
2019-03-12T03:23:08.000Z,81.85
2019-03-12T03:24:07.972Z,81.96
2019-03-12T03:25:07.964Z,81.54
2019-03-12T03:26:08.012Z,81.96
2019-03-12T03:27:07.942Z,81.96
2019-03-12T03:28:07.940Z,82.17
2019-03-12T03:29:07.924Z,81.96
2019-03-12T03:30:07.910Z,82.48
2019-03-12T03:31:07.912Z,82.37
2019-03-12T03:32:07.914Z,82.17
2019-03-12T03:33:07.872Z,82.17
2019-03-12T03:34:07.868Z,82.48
2019-03-12T03:35:07.850Z,82.48
2019-03-12T03:36:07.871Z,82.17
2019-03-12T03:37:07.831Z,82.58
2019-03-12T03:38:07.812Z,82.37
2019-03-12T03:39:07.817Z,82.37
2019-03-12T03:40:07.844Z,82.27
2019-03-12T03:41:07.808Z,82.37
2019-03-12T03:42:07.802Z,82.37
2019-03-12T03:43:07.765Z,82.37
2019-03-12T03:44:07.750Z,82.37
2019-03-12T03:45:07.742Z,82.27
2019-03-12T03:46:07.771Z,82.37
2019-03-12T03:47:07.712Z,82.27
2019-03-12T03:48:07.733Z,82.48
2019-03-12T03:49:07.693Z,82.27
2019-03-12T03:50:07.683Z,82.27
2019-03-12T03:51:07.671Z,82.06
2019-03-12T03:52:07.676Z,82.06
2019-03-12T03:53:07.657Z,81.54
2019-03-12T03:54:07.639Z,81.65
2019-03-12T03:55:07.634Z,82.17
2019-03-12T03:56:07.618Z,81.54
2019-03-12T03:57:07.638Z,81.75
2019-03-12T03:58:07.689Z,81.85
2019-03-12T03:59:07.588Z,81.82
2019-03-12T04:00:07.573Z,81.71
2019-03-12T04:01:07.580Z,81.71
2019-03-12T04:02:07.565Z,81.75
2019-03-12T04:03:07.556Z,81.51
2019-03-12T04:04:07.530Z,81.65
2019-03-12T04:05:07.526Z,81.65
2019-03-12T04:06:07.506Z,81.61
2019-03-12T04:07:07.552Z,81.61
2019-03-12T04:08:07.488Z,81.54
2019-03-12T04:09:07.482Z,81.40
2019-03-12T04:10:07.461Z,81.54
2019-03-12T04:11:07.462Z,81.65
2019-03-12T04:12:07.466Z,81.61
2019-03-12T04:13:07.433Z,81.51
2019-03-12T04:14:07.417Z,81.40
2019-03-12T04:15:07.404Z,81.30
2019-03-12T04:16:07.404Z,81.30
2019-03-12T04:17:07.392Z,81.09
2019-03-12T04:18:07.383Z,81.30
2019-03-12T04:19:07.364Z,81.09
2019-03-12T04:20:07.356Z,80.99
2019-03-12T04:21:07.338Z,80.99
2019-03-12T04:22:07.355Z,81.09
2019-03-12T04:23:07.329Z,81.16
2019-03-12T04:24:07.326Z,81.16
2019-03-12T04:25:07.294Z,81.09
2019-03-12T04:26:07.284Z,80.36
2019-03-12T04:27:07.311Z,80.26
2019-03-12T04:28:07.285Z,80.26
2019-03-12T04:29:07.253Z,80.88
2019-03-12T04:30:07.236Z,81.20
2019-03-12T04:31:07.235Z,81.20
2019-03-12T04:32:07.214Z,81.09
2019-03-12T04:33:07.237Z,80.78
2019-03-12T04:34:07.195Z,80.47
2019-03-12T04:35:07.181Z,80.36
2019-03-12T04:36:07.173Z,80.30
2019-03-12T04:37:07.158Z,80.88
2019-03-12T04:38:07.407Z,80.26
2019-03-12T04:39:07.142Z,80.57
2019-03-12T04:40:07.131Z,80.47
2019-03-12T04:41:07.110Z,80.26
2019-03-12T04:42:07.119Z,80.26
2019-03-12T04:43:07.362Z,80.47
2019-03-12T04:44:07.079Z,80.47
2019-03-12T04:45:07.074Z,80.78
2019-03-12T04:46:07.074Z,86.79
2019-03-12T04:47:07.092Z,89.75
2019-03-12T04:48:07.383Z,89.44
2019-03-12T04:49:07.026Z,88.40
2019-03-12T04:50:07.026Z,86.96
2019-03-12T04:51:07.000Z,83.02
2019-03-12T04:52:06.993Z,81.43
2019-03-12T04:53:07.016Z,79.26
2019-03-12T04:54:06.968Z,78.22
2019-03-12T04:55:06.969Z,78.53
2019-03-12T04:56:06.959Z,78.43
2019-03-12T04:57:06.939Z,78.43
2019-03-12T04:58:06.942Z,78.12
2019-03-12T04:59:06.910Z,77.91
2019-03-12T05:00:06.998Z,78.02
2019-03-12T05:01:06.890Z,77.19
2019-03-12T05:02:06.877Z,77.29
2019-03-12T05:03:06.894Z,76.98
2019-03-12T05:04:06.903Z,76.78
2019-03-12T05:05:06.841Z,76.67
2019-03-12T05:06:06.836Z,76.36
2019-03-12T05:07:06.849Z,76.71
2019-03-12T05:08:06.843Z,76.19
2019-03-12T05:09:06.802Z,76.61
2019-03-12T05:10:06.802Z,76.71
2019-03-12T05:11:06.779Z,76.67
2019-03-12T05:12:06.787Z,76.91
2019-03-12T05:13:06.751Z,76.81
2019-03-12T05:14:06.775Z,77.01
2019-03-12T05:15:06.741Z,76.91
2019-03-12T05:16:06.723Z,77.22
2019-03-12T05:17:06.709Z,77.33
2019-03-12T05:18:06.692Z,77.12
2019-03-12T05:19:06.707Z,76.81
2019-03-12T05:20:06.682Z,76.40
2019-03-12T05:21:06.673Z,76.29
2019-03-12T05:22:06.702Z,76.19
2019-03-12T05:23:06.655Z,76.19
2019-03-12T05:24:06.642Z,76.19
2019-03-12T05:25:06.616Z,76.09
2019-03-12T05:26:06.622Z,75.67
2019-03-12T05:27:06.613Z,76.23
2019-03-12T05:28:06.593Z,76.29
2019-03-12T05:29:06.609Z,76.23
2019-03-12T05:30:06.564Z,76.64
2019-03-12T05:31:06.552Z,76.74
2019-03-12T05:32:06.549Z,76.74
2019-03-12T05:33:06.529Z,76.74
2019-03-12T05:34:06.551Z,76.84
2019-03-12T05:35:06.529Z,76.40
2019-03-12T05:36:06.499Z,76.09
2019-03-12T05:37:06.489Z,75.92
2019-03-12T05:38:06.489Z,76.23
2019-03-12T05:39:06.502Z,76.02
2019-03-12T05:40:06.449Z,76.43
2019-03-12T05:41:06.451Z,76.53
2019-03-12T05:42:06.450Z,75.81
2019-03-12T05:43:06.431Z,75.19
2019-03-12T05:44:06.431Z,74.88
2019-03-12T05:45:06.399Z,75.09
2019-03-12T05:46:06.384Z,75.19
2019-03-12T05:47:08.107Z,75.74
2019-03-12T05:48:06.369Z,75.32
2019-03-12T05:49:06.372Z,75.19
2019-03-12T05:50:06.339Z,75.22
2019-03-12T05:51:06.326Z,75.02
2019-03-12T05:52:06.327Z,75.71
2019-03-12T05:53:06.316Z,74.88
2019-03-12T05:54:06.326Z,74.81
2019-03-12T05:55:06.285Z,77.29
2019-03-12T05:56:06.278Z,76.05
2019-03-12T05:57:06.338Z,75.32
2019-03-12T05:58:06.257Z,75.74
2019-03-12T05:59:06.239Z,75.32
2019-03-12T06:00:06.282Z,74.81
2019-03-12T06:01:06.221Z,75.43
2019-03-12T06:02:06.203Z,75.32
2019-03-12T06:03:06.195Z,75.32
2019-03-12T06:04:06.179Z,75.22
2019-03-12T06:05:06.195Z,75.74
2019-03-12T06:06:06.171Z,75.32
2019-03-12T06:07:06.159Z,75.95
2019-03-12T06:08:06.150Z,75.74
2019-03-12T06:09:06.152Z,75.12
2019-03-12T06:10:06.148Z,74.81
2019-03-12T06:11:06.108Z,75.53
2019-03-12T06:12:06.119Z,75.53
2019-03-12T06:13:06.082Z,76.26
2019-03-12T06:14:06.090Z,75.74
2019-03-12T06:15:06.085Z,75.43
2019-03-12T06:16:06.051Z,76.15
2019-03-12T06:17:06.036Z,75.74
2019-03-12T06:18:06.027Z,76.05
2019-03-12T06:19:06.024Z,76.05
2019-03-12T06:20:06.054Z,76.05
2019-03-12T06:21:06.002Z,75.63
2019-03-12T06:22:06.005Z,75.02
2019-03-12T06:23:05.976Z,75.22
2019-03-12T06:24:05.972Z,74.81
2019-03-12T06:25:05.986Z,74.77
2019-03-12T06:26:05.961Z,73.88
2019-03-12T06:27:05.926Z,74.19
2019-03-12T06:28:05.940Z,74.08
2019-03-12T06:29:05.901Z,74.29
2019-03-12T06:30:05.924Z,74.29
2019-03-12T06:31:05.878Z,74.60
2019-03-12T06:32:05.866Z,74.15
2019-03-12T06:33:05.860Z,74.05
2019-03-12T06:34:05.860Z,73.63
2019-03-12T06:35:05.893Z,74.26
2019-03-12T06:36:05.822Z,73.94
2019-03-12T06:37:05.822Z,74.15
2019-03-12T06:38:05.799Z,74.91
2019-03-12T06:39:05.808Z,74.46
2019-03-12T06:40:05.809Z,74.46
2019-03-12T06:41:05.774Z,73.53
2019-03-12T06:42:07.949Z,73.74
2019-03-12T06:43:05.746Z,74.40
2019-03-12T06:44:05.747Z,74.08
2019-03-12T06:45:05.720Z,74.40
2019-03-12T06:46:05.748Z,74.91
2019-03-12T06:47:05.705Z,75.02
2019-03-12T06:48:05.688Z,74.46
2019-03-12T06:49:05.691Z,74.77
2019-03-12T06:50:05.686Z,75.22
2019-03-12T06:51:05.842Z,75.12
2019-03-12T06:52:05.648Z,74.88
2019-03-12T06:53:05.633Z,75.19
2019-03-12T06:54:05.623Z,74.98
2019-03-12T06:55:05.629Z,75.09
2019-03-12T06:56:05.624Z,74.77
2019-03-12T06:57:05.607Z,74.67
2019-03-12T06:58:05.579Z,74.77
2019-03-12T06:59:05.566Z,74.98
2019-03-12T07:00:05.561Z,75.50
2019-03-12T07:01:08.034Z,74.88
2019-03-12T07:02:05.531Z,75.50
2019-03-12T07:03:05.538Z,76.12
2019-03-12T07:04:05.519Z,75.92
2019-03-12T07:05:05.496Z,76.32
2019-03-12T07:06:05.516Z,78.61
2019-03-12T07:07:07.078Z,78.47
2019-03-12T07:08:06.585Z,78.26
2019-03-12T07:09:05.465Z,77.43
2019-03-12T07:10:05.450Z,78.36
2019-03-12T07:11:05.455Z,78.88
2019-03-12T07:12:05.447Z,78.22
2019-03-12T07:13:05.408Z,78.22
2019-03-12T07:14:05.401Z,77.70
2019-03-12T07:15:05.390Z,76.12
2019-03-12T07:16:05.420Z,76.64
2019-03-12T07:17:05.410Z,78.39
2019-03-12T07:18:05.357Z,76.84
2019-03-12T07:19:05.346Z,75.70
2019-03-12T07:20:05.351Z,74.84
2019-03-12T07:21:05.340Z,74.74
2019-03-12T07:22:05.313Z,74.77
2019-03-12T07:23:05.307Z,75.09
2019-03-12T07:24:05.359Z,75.19
2019-03-12T07:25:05.322Z,76.01
2019-03-12T07:26:05.294Z,76.32
2019-03-12T07:27:05.277Z,76.46
2019-03-12T07:28:05.260Z,76.12
2019-03-12T07:29:05.235Z,76.22
2019-03-12T07:30:05.222Z,76.67
2019-03-12T07:31:05.288Z,76.57
2019-03-12T07:32:05.203Z,76.67
2019-03-12T07:33:05.234Z,77.09
2019-03-12T07:34:05.180Z,78.22
2019-03-12T07:35:05.162Z,78.43
2019-03-12T07:36:05.189Z,78.78
2019-03-12T07:37:05.140Z,78.95
2019-03-12T07:38:05.132Z,78.78
2019-03-12T07:39:05.200Z,78.67
2019-03-12T07:40:05.117Z,79.16
2019-03-12T07:41:05.116Z,79.19
2019-03-12T07:42:05.111Z,79.30
2019-03-12T07:43:05.086Z,78.99
2019-03-12T07:44:05.173Z,79.09
2019-03-12T07:45:05.055Z,78.74
2019-03-12T07:46:05.062Z,78.99
2019-03-12T07:47:05.075Z,79.09
2019-03-12T07:48:05.020Z,79.16
2019-03-12T07:49:05.053Z,78.95
2019-03-12T07:50:05.002Z,78.22
2019-03-12T07:51:05.019Z,78.53
2019-03-12T07:52:04.981Z,79.05
2019-03-12T07:53:04.977Z,78.95
2019-03-12T07:54:04.951Z,78.53
2019-03-12T07:55:04.962Z,78.95
2019-03-12T07:56:04.978Z,78.64
2019-03-12T07:57:04.961Z,79.26
2019-03-12T07:58:04.921Z,79.22
2019-03-12T07:59:05.122Z,79.33
2019-03-12T08:00:04.886Z,78.91
2019-03-12T08:01:04.878Z,79.02
2019-03-12T08:02:04.897Z,79.33
2019-03-12T08:03:04.855Z,79.02
2019-03-12T08:04:04.838Z,78.81
2019-03-12T08:05:04.831Z,78.91
2019-03-12T08:06:04.821Z,79.02
2019-03-12T08:07:04.837Z,78.60
2019-03-12T08:08:04.827Z,78.81
2019-03-12T08:09:04.799Z,78.77
2019-03-12T08:10:04.786Z,78.56
2019-03-12T08:11:04.766Z,78.77
2019-03-12T08:12:04.793Z,78.77
2019-03-12T08:13:04.745Z,78.67
2019-03-12T08:14:04.731Z,78.50
2019-03-12T08:15:04.732Z,78.77
2019-03-12T08:16:04.707Z,78.98
2019-03-12T08:17:04.719Z,78.88
2019-03-12T08:18:04.689Z,79.08
2019-03-12T08:19:04.695Z,79.39
2019-03-12T08:20:04.672Z,79.70
2019-03-12T08:21:04.652Z,79.80
2019-03-12T08:22:04.661Z,79.39
2019-03-12T08:23:04.680Z,79.80
2019-03-12T08:24:04.639Z,79.60
2019-03-12T08:25:04.607Z,78.81
2019-03-12T08:26:04.593Z,78.98
2019-03-12T08:27:04.624Z,79.53
2019-03-12T08:28:04.610Z,80.32
2019-03-12T08:29:04.565Z,80.01
2019-03-12T08:30:04.552Z,80.63
2019-03-12T08:31:04.553Z,80.74
2019-03-12T08:32:04.575Z,80.22
2019-03-12T08:33:04.522Z,79.08
2019-03-12T08:34:04.514Z,79.39
2019-03-12T08:35:04.498Z,78.88
2019-03-12T08:36:04.491Z,78.94
2019-03-12T08:37:04.521Z,78.53
2019-03-12T08:38:04.471Z,78.42
2019-03-12T08:39:04.481Z,78.94
2019-03-12T08:40:04.453Z,79.46
2019-03-12T08:41:04.466Z,79.05
2019-03-12T08:42:04.426Z,79.05
2019-03-12T08:43:04.460Z,78.74
2019-03-12T08:44:04.404Z,78.84
2019-03-12T08:45:04.397Z,78.94
2019-03-12T08:46:04.377Z,78.94
2019-03-12T08:47:04.373Z,78.94
2019-03-12T08:48:04.383Z,78.53
2019-03-12T08:49:04.348Z,78.63
2019-03-12T08:50:04.335Z,78.63
2019-03-12T08:51:05.420Z,77.91
2019-03-12T08:52:04.322Z,78.94
2019-03-12T08:53:04.333Z,78.22
2019-03-12T08:54:04.298Z,78.77
2019-03-12T08:55:04.496Z,78.53
2019-03-12T08:56:04.267Z,78.53
2019-03-12T08:57:04.267Z,78.94
2019-03-12T08:58:04.282Z,78.63
2019-03-12T08:59:04.238Z,78.53
2019-03-12T09:00:04.229Z,78.63
2019-03-12T09:01:04.216Z,78.53
2019-03-12T09:02:04.206Z,78.74
2019-03-12T09:03:04.239Z,78.59
2019-03-12T09:04:04.181Z,78.32
2019-03-12T09:05:04.172Z,78.22
2019-03-12T09:06:04.165Z,78.32
2019-03-12T09:07:05.311Z,78.70
2019-03-12T09:08:04.164Z,78.39
2019-03-12T09:09:04.145Z,77.87
2019-03-12T09:10:04.120Z,78.18
2019-03-12T09:11:04.108Z,76.64
2019-03-12T09:12:04.103Z,76.50
2019-03-12T09:13:04.109Z,76.39
2019-03-12T09:14:04.086Z,76.08
2019-03-12T09:15:04.067Z,76.01
2019-03-12T09:16:04.049Z,75.98
2019-03-12T09:17:04.052Z,76.60
2019-03-12T09:18:04.047Z,76.60
2019-03-12T09:19:04.019Z,75.87
2019-03-12T09:20:04.013Z,76.50
2019-03-12T09:21:04.005Z,76.50
2019-03-12T09:22:03.998Z,75.87
2019-03-12T09:23:04.041Z,74.74
2019-03-12T09:24:03.957Z,75.26
2019-03-12T09:25:03.952Z,75.46
2019-03-12T09:26:03.940Z,74.53
2019-03-12T09:27:03.930Z,75.05
2019-03-12T09:28:03.922Z,74.46
2019-03-12T09:29:03.920Z,74.63
2019-03-12T09:30:03.896Z,74.95
2019-03-12T09:31:03.910Z,74.43
2019-03-12T09:32:03.892Z,74.95
2019-03-12T09:33:03.877Z,74.74
2019-03-12T09:34:03.870Z,74.63
2019-03-12T09:35:03.901Z,74.63
2019-03-12T09:36:03.843Z,74.84
2019-03-12T09:37:03.850Z,75.15
2019-03-12T09:38:03.832Z,74.50
2019-03-12T09:39:03.825Z,75.01
2019-03-12T09:40:03.791Z,74.95
2019-03-12T09:41:03.778Z,75.01
2019-03-12T09:42:03.771Z,73.36
2019-03-12T09:43:03.759Z,73.26
2019-03-12T09:44:03.776Z,73.12
2019-03-12T09:45:03.757Z,72.92
2019-03-12T09:46:03.732Z,73.12
2019-03-12T09:47:03.722Z,73.09
2019-03-12T09:48:03.731Z,72.47
2019-03-12T09:49:03.753Z,71.82
2019-03-12T09:50:03.682Z,72.23
2019-03-12T09:51:03.717Z,72.13
2019-03-12T09:52:03.659Z,71.00
2019-03-12T09:53:03.716Z,70.34
2019-03-12T09:54:03.685Z,69.42
2019-03-12T09:55:04.926Z,67.63
2019-03-12T09:56:03.687Z,66.71
2019-03-12T09:57:03.615Z,67.46
2019-03-12T09:58:03.602Z,65.78
2019-03-12T09:59:03.596Z,66.91
2019-03-12T10:00:15.505Z,66.71
2019-03-12T10:01:04.947Z,65.89
2019-03-12T10:02:03.543Z,66.81
2019-03-12T10:03:03.622Z,66.40
2019-03-12T10:04:03.608Z,66.37
2019-03-12T10:05:03.538Z,66.40
2019-03-12T10:06:03.495Z,66.40
2019-03-12T10:07:03.563Z,65.95
2019-03-12T10:08:03.473Z,65.65
2019-03-12T10:09:03.515Z,65.13
2019-03-12T10:10:03.468Z,64.39
2019-03-12T10:11:03.445Z,63.32
2019-03-12T10:12:03.449Z,62.78
2019-03-12T10:13:03.415Z,62.85
2019-03-12T10:14:03.408Z,61.72
2019-03-12T10:15:03.440Z,61.16
2019-03-12T10:16:03.476Z,59.82
2019-03-12T10:17:03.367Z,59.59
2019-03-12T10:18:03.384Z,59.97
2019-03-12T10:19:03.358Z,59.46
2019-03-12T10:20:03.357Z,59.77
2019-03-12T10:21:03.364Z,58.67
2019-03-12T10:22:03.324Z,57.79
2019-03-12T10:23:03.305Z,56.56
2019-03-12T10:24:03.301Z,57.00
2019-03-12T10:25:03.310Z,56.69
2019-03-12T10:26:03.271Z,57.54
2019-03-12T10:27:03.286Z,58.23
2019-03-12T10:28:03.253Z,56.46
2019-03-12T10:29:03.243Z,54.21
2019-03-12T10:30:03.260Z,55.26
2019-03-12T10:31:03.217Z,53.87
2019-03-12T10:32:03.217Z,52.92
2019-03-12T10:33:03.192Z,53.46
2019-03-12T10:34:03.188Z,54.44
2019-03-12T10:35:03.208Z,55.90
2019-03-12T10:36:03.212Z,55.62
2019-03-12T10:37:12.153Z,53.44
2019-03-12T10:38:04.136Z,48.99
2019-03-12T10:39:03.164Z,45.95
2019-03-12T10:40:03.121Z,43.08
2019-03-12T10:41:03.153Z,40.13
2019-03-12T10:42:03.094Z,39.70
2019-03-12T10:43:03.118Z,41.93
2019-03-12T10:44:03.079Z,42.57
2019-03-12T10:45:03.066Z,39.76
2019-03-12T10:46:03.101Z,36.94
2019-03-12T10:47:03.036Z,34.94
2019-03-12T10:48:03.028Z,33.82
2019-03-12T10:49:03.025Z,34.30
2019-03-12T10:50:03.011Z,36.14
2019-03-12T10:51:03.079Z,38.52
2019-03-12T10:52:02.978Z,40.20
2019-03-12T10:53:02.970Z,37.88
2019-03-12T10:54:02.963Z,39.17
2019-03-12T10:55:12.468Z,40.72
2019-03-12T10:56:03.961Z,40.86
2019-03-12T10:57:02.927Z,41.92
2019-03-12T10:58:02.934Z,41.03
2019-03-12T10:59:02.972Z,39.18
2019-03-12T11:00:02.901Z,41.17
2019-03-12T11:01:02.967Z,42.61
2019-03-12T11:02:02.870Z,41.96
2019-03-12T11:03:02.868Z,41.80
2019-03-12T11:04:02.861Z,43.29
2019-03-12T11:05:02.848Z,43.43
2019-03-12T11:06:03.633Z,45.18
2019-03-12T11:07:15.575Z,43.04
2019-03-12T11:08:06.715Z,43.43
2019-03-12T11:09:02.789Z,45.69
2019-03-12T11:10:02.795Z,45.18
2019-03-12T11:11:02.802Z,44.90
2019-03-12T11:12:02.785Z,45.84
2019-03-12T11:13:02.764Z,44.18
2019-03-12T11:14:02.738Z,43.59
2019-03-12T11:15:02.727Z,43.71
2019-03-12T11:16:02.726Z,45.67
2019-03-12T11:17:02.712Z,45.82
2019-03-12T11:18:02.696Z,46.23
2019-03-12T11:19:02.682Z,46.45
2019-03-12T11:20:02.704Z,47.19
2019-03-12T11:21:02.698Z,48.34
2019-03-12T11:22:02.643Z,47.83
2019-03-12T11:23:02.678Z,47.45
2019-03-12T11:24:02.634Z,45.14
2019-03-12T11:25:02.618Z,45.59
2019-03-12T11:26:02.597Z,47.05
2019-03-12T11:27:02.633Z,47.05
2019-03-12T11:28:02.596Z,47.17
2019-03-12T11:29:02.610Z,46.58
2019-03-12T11:30:02.559Z,46.72
2019-03-12T11:31:02.558Z,46.29
2019-03-12T11:32:02.575Z,44.37
2019-03-12T11:33:02.522Z,43.63
2019-03-12T11:34:02.517Z,42.08
2019-03-12T11:35:02.505Z,41.23
2019-03-12T11:36:02.926Z,40.62
2019-03-12T11:37:02.864Z,40.70
2019-03-12T11:38:02.643Z,40.68
2019-03-12T11:39:02.562Z,39.73
2019-03-12T11:40:02.626Z,38.88
2019-03-12T11:41:02.450Z,38.15
2019-03-12T11:42:02.460Z,36.69
2019-03-12T11:43:02.433Z,36.27
2019-03-12T11:44:02.401Z,36.66
2019-03-12T11:45:02.462Z,35.43
2019-03-12T11:46:02.392Z,35.43
2019-03-12T11:47:02.390Z,36.69
2019-03-12T11:48:02.381Z,37.42
2019-03-12T11:49:02.381Z,37.04
2019-03-12T11:50:02.379Z,37.98
2019-03-12T11:51:02.332Z,37.59
2019-03-12T11:52:02.342Z,37.51
2019-03-12T11:53:02.468Z,38.31
2019-03-12T11:54:02.316Z,37.66
2019-03-12T11:55:02.308Z,36.83
2019-03-12T11:56:02.707Z,37.27
2019-03-12T11:57:02.313Z,38.31
2019-03-12T11:58:02.296Z,39.14
2019-03-12T11:59:02.238Z,39.64
2019-03-12T12:00:02.341Z,39.24
2019-03-12T12:01:02.257Z,37.70
2019-03-12T12:02:02.219Z,37.29
2019-03-12T12:03:02.185Z,36.76
2019-03-12T12:04:02.190Z,36.34
2019-03-12T12:05:02.203Z,36.34
2019-03-12T12:06:02.171Z,36.24
2019-03-12T12:07:02.160Z,36.66
2019-03-12T12:08:02.146Z,36.87
2019-03-12T12:09:02.137Z,37.05
2019-03-12T12:10:02.477Z,36.87
2019-03-12T12:11:02.138Z,37.78
2019-03-12T12:12:02.120Z,37.04
2019-03-12T12:13:02.103Z,35.92
2019-03-12T12:14:02.062Z,36.93
2019-03-12T12:15:02.061Z,36.65
2019-03-12T12:16:02.047Z,36.88
2019-03-12T12:17:02.058Z,37.82
2019-03-12T12:18:02.025Z,38.04
2019-03-12T12:19:02.014Z,38.00
2019-03-12T12:20:01.997Z,37.17
2019-03-12T12:21:02.077Z,36.65
2019-03-12T12:22:02.054Z,36.02
2019-03-12T12:23:01.963Z,36.91
2019-03-12T12:24:01.954Z,35.58
2019-03-12T12:25:01.941Z,34.69
2019-03-12T12:26:01.937Z,35.42
2019-03-12T12:27:01.965Z,35.44
2019-03-12T12:28:01.926Z,36.88
2019-03-12T12:29:01.903Z,35.97
2019-03-12T12:30:01.937Z,37.63
2019-03-12T12:31:01.904Z,37.21
2019-03-12T12:32:01.890Z,36.00
2019-03-12T12:33:01.881Z,35.17
2019-03-12T12:34:01.975Z,35.17
2019-03-12T12:35:02.638Z,35.05
2019-03-12T12:36:01.820Z,35.48
2019-03-12T12:37:01.812Z,34.55
2019-03-12T12:38:01.827Z,35.46
2019-03-12T12:39:01.786Z,35.64
2019-03-12T12:40:01.788Z,35.04
2019-03-12T12:41:01.765Z,34.92
2019-03-12T12:42:01.773Z,34.53
2019-03-12T12:43:01.770Z,35.46
2019-03-12T12:44:01.744Z,35.86
2019-03-12T12:45:01.728Z,35.97
2019-03-12T12:46:01.717Z,36.39
2019-03-12T12:47:01.698Z,36.80
2019-03-12T12:48:01.713Z,36.38
2019-03-12T12:49:01.686Z,36.29
2019-03-12T12:50:01.667Z,36.92
2019-03-12T12:51:03.491Z,36.12
2019-03-12T12:52:01.660Z,37.36